Grand Ridge, IL (61325)

6:53 AM CST on February 06, 2016 (GMT -0600)
APRSWXNET | | Change Station
CLOSE
Current Station
Personal Weather Station
Location: Grand Ridge, IL
Elevation: 620 ft
Nearby Weather Stations

Elev 620 ft 41.24 °N, 88.83 °W | Updated 28 minutes ago

Partly Cloudy
Partly Cloudy
25 °F
Feels Like 19 °F
N
5
Wind Variable Wind from SSW
Gusts 9.0 mph

Today
High -- | Low -- °F
--% Chance of Precip.
Yesterday
High -- | Low -- °F
Precip. -- in
Pressure 30.29 in
Visibility 5.0 miles
Clouds Overcast 3100 ft
Windchill 19 °F
Dew Point 23 °F
Humidity 92%
Rainfall in
Snow Depth Not available.
7:01 AM 5:17 PM
Waning Crescent, 6% visible
METAR KVYS 061235Z AUTO 20004KT 5SM BR OVC031 M03/M04 A3029 RMK AO2 T10321040
Pressure 30.29 in
Visibility 5.0 miles
Clouds Overcast 3100 ft
Windchill 19 °F
Dew Point 23 °F
Humidity 92%
Rainfall in
Snow Depth Not available.
7:01 AM 5:17 PM
Waning Crescent, 6% visible
METAR KVYS 061235Z AUTO 20004KT 5SM BR OVC031 M03/M04 A3029 RMK AO2 T10321040

10-Day Weather Forecast

Almanac

Astronomy

Feb. 06, 2016 Rise Set
Actual Time
Civil Twilight
Nautical Twilight
Astronomical Twilight
Moon
Length of Visible Light
Length of Day
Tomorrow will be .
, % of the Moon is Illuminated

Today's Extremes

State Highs State Lows

Community

WunderPhotos

Upload Photos

1,890,954 photos uploaded!

WunderBlog® & News

Nearby

Air Quality

  Air Quality AQ Index Pollutant
Not available.

Snow Depth

Station Depth Elevation

Earthquake Activity

City Distance Mag. Time & Date
Minimum magnitude displayed is 2.5.

Coastal Water Temperatures

Place Temperature

Stations

Nearby Weather Stations

Station Location Temp. Windchill Dew Point Humidity Wind Precip. Elev Updated Type
                   

Watches & Warnings

There are currently no watches in effect.